Terminal Aerodrome Forecast
Issued by NWS Corpus Christi, TX

Home | Current Version | Previous Version | Text Only | Print | Product List | Glossary On
Versions: 1 2 3 4 5 6 7 8 9 10 11 12 13 14 15 16 17
000
FTUS44 KCRP 300300 AAA
TAFVCT
TAF AMD
KVCT 300312Z 3003/3024 03006KT P6SM FEW006 SCT025
      TEMPO 3004/3008 4SM BR SCT005 BKN025
     FM300800 02014G20KT P6SM OVC025
     FM301600 05012KT P6SM SCT020 OVC035
     FM302000 07009KT P6SM BKN018 OVC030=

USA.gov is the U.S. government's official web portal to all federal, state and local government web resources and services.